Terminal Aerodrome Forecast
Issued by NWS

Home | Current Version | Previous Version | Text Only | Print | Product List | Glossary On
Versions: 1 2 3 4 5 6 7 8 9 10 11 12 13 14 15 16 17 18 19
000
FTAK31 PANC 171146 CCA
TAFAAQ
TAF COR
PAAQ 171146Z 1712/1812 35006KT P6SM SCT010 BKN050
      TEMPO 1712/1715 BKN010
     FM172000 VRB03KT P6SM SCT080=

USA.gov is the U.S. government's official web portal to all federal, state and local government web resources and services.